Terminal Aerodrome Forecast
Issued by NWS Jackson, KY

Home | Current Version | Previous Version | Text Only | Print | Product List | Glossary Off
Versions: 1 2 3 4 5 6 7 8 9 10 11 12 13 14 15 16

000
FTUS43 KJKL 050305 AAA
TAFJKL
TAF AMD
KJKL 050305Z 0503/0524 VRB06KT 3SM BR BKN015
      TEMPO 0503/0507 3/4SM BR VV002
     FM050800 00000KT 1SM BR SCT060
     FM051300 18004KT P6SM SCT040=

USA.gov is the U.S. government's official web portal to all federal, state and local government web resources and services.